Waizenkirchen, Austria
Current Conditions -  °F | °C
As of 11:20 PM on Saturday 22 Nov 2014 (Local Time) from LOWL Reporting Station
Haze Haze  
Wind Chill: 30°   Ceiling: 800
Heat Index: 36°   Visibility: 3mi
Dew Point: 34°   Wind: 7mph
Humidity: 93%   Direction: 80°E
Pressure: 30.27"   Gusts: NA
Location:  48.33°N, 13.86°E
Report Text: LOWL 222120Z 08006KT 5000 BR BKN008 02/01 Q1025 TEMPO 4000
Loading
Personal Weather Stations






























Interactive Weather Map New forecast layout! Learn more

10-Day Weather Forecast

Advertisements
Track Severe Weather on mobile